createdAt,value
2018-08-03T00:01:34.180Z,24.58
2018-08-03T00:04:03.615Z,24.45
2018-08-03T00:06:33.562Z,24.44
2018-08-03T00:09:03.070Z,24.55
2018-08-03T00:11:33.775Z,24.57
2018-08-03T00:14:03.114Z,24.47
2018-08-03T00:16:33.180Z,24.41
2018-08-03T00:19:02.726Z,24.30
2018-08-03T00:21:32.692Z,24.21
2018-08-03T00:24:01.924Z,24.45
2018-08-03T00:26:31.188Z,24.36
2018-08-03T00:29:00.300Z,24.29
2018-08-03T00:31:30.475Z,24.14
2018-08-03T00:33:59.539Z,24.20
2018-08-03T00:36:29.099Z,24.22
2018-08-03T00:38:58.772Z,24.13
2018-08-03T00:41:28.442Z,24.25
2018-08-03T00:43:57.411Z,24.28
2018-08-03T00:46:26.613Z,24.19
2018-08-03T00:48:55.749Z,24.06
2018-08-03T00:51:24.875Z,23.96
2018-08-03T00:53:54.117Z,24.02
2018-08-03T00:56:24.253Z,24.08
2018-08-03T00:58:54.314Z,24.04
2018-08-03T01:01:24.661Z,24.11
2018-08-03T01:03:54.178Z,24.04
2018-08-03T01:06:23.902Z,24.12
2018-08-03T01:08:53.230Z,24.01
2018-08-03T01:11:22.754Z,24.05
2018-08-03T01:13:52.743Z,24.08
2018-08-03T01:16:22.123Z,24.12
2018-08-03T01:18:52.526Z,24.03
2018-08-03T01:21:22.134Z,23.88
2018-08-03T01:23:51.465Z,23.92
2018-08-03T01:26:20.754Z,23.81
2018-08-03T01:28:51.306Z,23.58
2018-08-03T01:31:20.728Z,23.69
2018-08-03T01:33:49.878Z,23.75
2018-08-03T01:36:21.258Z,23.60
2018-08-03T01:38:51.040Z,23.49
2018-08-03T01:41:20.261Z,23.52
2018-08-03T01:43:49.867Z,23.41
2018-08-03T01:46:19.442Z,23.35
2018-08-03T01:48:48.693Z,23.16
2018-08-03T01:51:18.249Z,23.22
2018-08-03T01:53:47.334Z,22.96
2018-08-03T01:56:16.887Z,23.15
2018-08-03T01:58:46.267Z,23.01
2018-08-03T02:01:15.747Z,23.01
2018-08-03T02:03:45.295Z,23.00
2018-08-03T02:06:14.510Z,22.79
2018-08-03T02:08:43.992Z,22.81
2018-08-03T02:11:13.488Z,22.75
2018-08-03T02:13:42.604Z,22.80
2018-08-03T02:16:11.918Z,22.70
2018-08-03T02:18:40.962Z,22.71
2018-08-03T02:21:10.904Z,22.69
2018-08-03T02:23:40.330Z,22.59
2018-08-03T02:26:09.862Z,22.55
2018-08-03T02:28:40.046Z,22.57
2018-08-03T02:31:09.323Z,22.54
2018-08-03T02:33:38.375Z,22.44
2018-08-03T02:36:07.494Z,22.52
2018-08-03T02:38:36.842Z,22.52
2018-08-03T02:41:06.969Z,22.31
2018-08-03T02:43:36.203Z,22.19
2018-08-03T02:46:05.363Z,22.26
2018-08-03T02:48:34.615Z,22.24
2018-08-03T02:51:03.715Z,22.21
2018-08-03T02:53:32.789Z,22.19
2018-08-03T02:56:02.331Z,22.33
2018-08-03T02:58:31.829Z,22.30
2018-08-03T03:01:01.336Z,22.11
2018-08-03T03:03:30.423Z,22.04
2018-08-03T03:06:00.050Z,22.04
2018-08-03T03:08:29.259Z,21.84
2018-08-03T03:10:58.690Z,21.94
2018-08-03T03:13:28.223Z,21.93
2018-08-03T03:15:57.178Z,21.85
2018-08-03T03:18:26.906Z,21.88
2018-08-03T03:20:57.479Z,21.85
2018-08-03T03:23:26.855Z,21.79
2018-08-03T03:25:55.963Z,21.90
2018-08-03T03:28:24.928Z,21.77
2018-08-03T03:30:54.804Z,21.59
2018-08-03T03:33:24.190Z,21.67
2018-08-03T03:35:53.095Z,21.70
2018-08-03T03:38:22.259Z,21.62
2018-08-03T03:40:51.369Z,21.62
2018-08-03T03:43:21.254Z,21.56
2018-08-03T03:45:50.778Z,21.54
2018-08-03T03:48:19.879Z,21.62
2018-08-03T03:50:49.319Z,21.58
2018-08-03T03:53:18.436Z,21.52
2018-08-03T03:55:48.158Z,21.58
2018-08-03T03:58:17.256Z,21.51
2018-08-03T04:00:46.366Z,21.38
2018-08-03T04:03:15.874Z,21.42
2018-08-03T04:05:45.426Z,21.35
2018-08-03T04:08:14.656Z,21.46
2018-08-03T04:10:44.171Z,21.37
2018-08-03T04:13:13.731Z,21.40
2018-08-03T04:15:43.023Z,21.34
2018-08-03T04:18:18.267Z,21.33
2018-08-03T04:20:47.527Z,21.25
2018-08-03T04:23:17.766Z,21.32
2018-08-03T04:25:47.100Z,21.05
2018-08-03T04:28:16.982Z,21.22
2018-08-03T04:30:46.203Z,21.33
2018-08-03T04:33:15.425Z,21.42
2018-08-03T04:35:44.463Z,21.41
2018-08-03T04:38:14.277Z,21.52
2018-08-03T04:40:43.771Z,21.56
2018-08-03T04:43:13.577Z,21.56
2018-08-03T04:45:43.390Z,21.44
2018-08-03T04:48:12.410Z,21.61
2018-08-03T04:50:42.044Z,21.75
2018-08-03T04:53:11.268Z,21.81
2018-08-03T04:55:40.946Z,21.94
2018-08-03T04:58:10.435Z,21.86
2018-08-03T05:00:39.862Z,22.02
2018-08-03T05:03:09.944Z,22.09
2018-08-03T05:05:39.456Z,22.30
2018-08-03T05:08:08.753Z,22.44
2018-08-03T05:10:38.904Z,22.51
2018-08-03T05:13:08.776Z,22.60
2018-08-03T05:15:38.461Z,22.49
2018-08-03T05:18:08.231Z,22.72
2018-08-03T05:20:38.028Z,22.58
2018-08-03T05:23:08.054Z,22.56
2018-08-03T05:25:37.087Z,22.45
2018-08-03T05:28:06.378Z,22.32
2018-08-03T05:30:35.507Z,22.38
2018-08-03T05:33:05.069Z,22.30
2018-08-03T05:35:34.446Z,22.23
2018-08-03T05:38:03.437Z,22.29
2018-08-03T05:40:32.881Z,22.27
2018-08-03T05:43:02.491Z,22.48
2018-08-03T05:45:31.957Z,22.61
2018-08-03T05:48:01.472Z,22.85
2018-08-03T05:50:31.558Z,22.79
2018-08-03T05:53:01.167Z,23.03
2018-08-03T05:55:30.542Z,22.95
2018-08-03T05:57:59.654Z,23.23
2018-08-03T06:00:29.174Z,23.31
2018-08-03T06:02:58.674Z,23.33
2018-08-03T06:05:27.647Z,23.14
2018-08-03T06:07:56.685Z,23.19
2018-08-03T06:10:25.684Z,23.48
2018-08-03T06:12:54.627Z,23.58
2018-08-03T06:15:23.638Z,23.67
2018-08-03T06:17:52.599Z,23.36
2018-08-03T06:20:21.547Z,23.33
2018-08-03T06:22:50.798Z,23.46
2018-08-03T06:25:19.933Z,23.57
2018-08-03T06:27:48.882Z,23.78
2018-08-03T06:30:18.071Z,23.87
2018-08-03T06:32:47.051Z,24.08
2018-08-03T06:35:16.272Z,24.11
2018-08-03T06:37:45.355Z,24.27
2018-08-03T06:40:14.853Z,24.36
2018-08-03T06:42:43.886Z,24.48
2018-08-03T06:45:13.039Z,24.46
2018-08-03T06:47:42.742Z,24.47
2018-08-03T06:50:11.695Z,24.48
2018-08-03T06:52:40.739Z,24.46
2018-08-03T06:55:09.667Z,24.38
2018-08-03T06:57:38.772Z,24.59
2018-08-03T07:00:08.171Z,24.80
2018-08-03T07:02:37.590Z,24.67
2018-08-03T07:05:06.547Z,24.50
2018-08-03T07:07:35.439Z,24.37
2018-08-03T07:10:04.583Z,24.69
2018-08-03T07:12:33.526Z,24.89
2018-08-03T07:15:02.442Z,25.24
2018-08-03T07:17:31.383Z,25.00
2018-08-03T07:20:01.092Z,25.22
2018-08-03T07:22:29.926Z,24.93
2018-08-03T07:24:58.926Z,25.00
2018-08-03T07:27:27.894Z,25.16
2018-08-03T07:29:57.041Z,25.25
2018-08-03T07:32:26.104Z,26.39
2018-08-03T07:34:55.052Z,27.58
2018-08-03T07:37:24.303Z,27.92
2018-08-03T07:39:53.244Z,28.59
2018-08-03T07:42:22.294Z,30.11
2018-08-03T07:44:51.351Z,32.03
2018-08-03T07:47:20.290Z,32.41
2018-08-03T07:49:49.322Z,33.15
2018-08-03T07:52:18.422Z,32.79
2018-08-03T07:54:47.560Z,32.87
2018-08-03T07:57:16.571Z,33.24
2018-08-03T07:59:45.687Z,30.18
2018-08-03T08:02:14.659Z,29.15
2018-08-03T08:04:43.583Z,30.09
2018-08-03T08:07:12.572Z,29.22
2018-08-03T08:09:41.671Z,28.83
2018-08-03T08:12:10.775Z,29.39
2018-08-03T08:14:39.792Z,29.24
2018-08-03T08:17:08.725Z,28.14
2018-08-03T08:19:37.651Z,28.05
2018-08-03T08:22:06.716Z,27.91
2018-08-03T08:24:35.677Z,28.57
2018-08-03T08:27:04.822Z,30.16
2018-08-03T08:29:33.794Z,30.84
2018-08-03T08:32:02.898Z,31.68
2018-08-03T08:34:32.666Z,31.57
2018-08-03T08:37:01.721Z,29.53
2018-08-03T08:39:30.655Z,29.08
2018-08-03T08:41:59.614Z,29.07
2018-08-03T08:44:28.604Z,29.37
2018-08-03T08:46:57.631Z,29.59
2018-08-03T08:49:26.909Z,29.86
2018-08-03T08:51:55.853Z,30.67
2018-08-03T08:54:24.999Z,30.43
2018-08-03T08:56:53.993Z,32.72
2018-08-03T08:59:23.038Z,34.02
2018-08-03T09:01:52.019Z,35.79
2018-08-03T09:04:21.244Z,36.77
2018-08-03T09:06:50.176Z,34.38
2018-08-03T09:09:19.271Z,35.54
2018-08-03T09:11:48.239Z,36.48
2018-08-03T09:14:17.294Z,36.56
2018-08-03T09:16:46.321Z,36.93
2018-08-03T09:19:15.286Z,36.46
2018-08-03T09:21:44.304Z,34.17
2018-08-03T09:24:13.331Z,33.06
2018-08-03T09:26:42.295Z,32.12
2018-08-03T09:29:11.230Z,31.13
2018-08-03T09:31:40.267Z,31.31
2018-08-03T09:34:09.224Z,31.10
2018-08-03T09:36:38.478Z,31.22
2018-08-03T09:39:08.415Z,31.54
2018-08-03T09:41:37.463Z,32.89
2018-08-03T09:44:06.821Z,31.83
2018-08-03T09:46:35.877Z,32.45
2018-08-03T09:49:04.860Z,34.32
2018-08-03T09:51:33.778Z,35.09
2018-08-03T09:54:03.302Z,36.09
2018-08-03T09:56:32.231Z,34.21
2018-08-03T09:59:01.340Z,34.74
2018-08-03T10:01:30.749Z,33.07
2018-08-03T10:03:59.703Z,33.75
2018-08-03T10:06:28.840Z,35.48
2018-08-03T10:08:57.930Z,34.74
2018-08-03T10:11:26.873Z,34.53
2018-08-03T10:13:55.846Z,35.39
2018-08-03T10:16:25.302Z,36.30
2018-08-03T10:18:54.689Z,36.86
2018-08-03T10:21:23.683Z,37.36
2018-08-03T10:23:52.654Z,37.08
2018-08-03T10:26:21.619Z,36.58
2018-08-03T10:28:50.579Z,36.18
2018-08-03T10:31:19.978Z,38.17
2018-08-03T10:33:48.975Z,40.25
2018-08-03T10:36:17.951Z,38.15
2018-08-03T10:38:46.947Z,40.44
2018-08-03T10:41:15.942Z,35.52
2018-08-03T10:43:44.954Z,38.44
2018-08-03T10:46:14.024Z,39.04
2018-08-03T10:48:43.124Z,37.76
2018-08-03T10:51:12.150Z,40.04
2018-08-03T10:53:41.152Z,41.05
2018-08-03T10:56:10.816Z,41.13
2018-08-03T10:58:39.716Z,41.14
2018-08-03T11:01:08.710Z,36.11
2018-08-03T11:03:37.652Z,37.42
2018-08-03T11:06:06.599Z,38.59
2018-08-03T11:08:35.750Z,38.13
2018-08-03T11:11:04.675Z,39.99
2018-08-03T11:13:33.856Z,40.41
2018-08-03T11:16:02.771Z,39.49
2018-08-03T11:18:31.702Z,38.34
2018-08-03T11:21:00.694Z,36.35
2018-08-03T11:23:29.671Z,35.27
2018-08-03T11:25:58.740Z,36.84
2018-08-03T11:28:27.794Z,36.50
2018-08-03T11:30:56.896Z,36.57
2018-08-03T11:33:25.817Z,37.29
2018-08-03T11:35:54.762Z,36.99
2018-08-03T11:38:23.697Z,36.63
2018-08-03T11:40:52.737Z,34.94
2018-08-03T11:43:21.695Z,34.33
2018-08-03T11:45:50.785Z,35.34
2018-08-03T11:48:19.827Z,35.46
2018-08-03T11:50:48.738Z,34.84
2018-08-03T11:53:17.794Z,34.05
2018-08-03T11:55:47.527Z,34.38
2018-08-03T11:58:16.503Z,34.70
2018-08-03T12:00:45.664Z,34.96
2018-08-03T12:03:14.538Z,35.24
2018-08-03T12:05:43.450Z,35.49
2018-08-03T12:08:12.499Z,35.36
2018-08-03T12:10:41.497Z,35.32
2018-08-03T12:13:10.480Z,35.54
2018-08-03T12:15:39.618Z,35.25
2018-08-03T12:18:08.611Z,35.37
2018-08-03T12:20:37.783Z,35.48
2018-08-03T12:23:06.777Z,35.79
2018-08-03T12:25:35.751Z,35.82
2018-08-03T12:28:04.744Z,35.77
2018-08-03T12:30:33.639Z,35.90
2018-08-03T12:33:02.742Z,35.99
2018-08-03T12:35:31.743Z,36.05
2018-08-03T12:38:00.926Z,35.97
2018-08-03T12:40:29.883Z,35.31
2018-08-03T12:42:58.920Z,35.30
2018-08-03T12:45:33.993Z,35.54
2018-08-03T12:47:56.885Z,35.53
2018-08-03T12:50:25.867Z,35.80
2018-08-03T12:52:55.001Z,35.94
2018-08-03T12:55:24.782Z,35.66
2018-08-03T12:57:53.687Z,35.84
2018-08-03T13:00:22.847Z,35.68
2018-08-03T13:02:51.799Z,35.71
2018-08-03T13:05:20.753Z,35.89
2018-08-03T13:07:49.791Z,35.80
2018-08-03T13:10:18.679Z,35.42
2018-08-03T13:12:48.691Z,35.89
2018-08-03T13:15:17.674Z,36.07
2018-08-03T13:17:46.787Z,36.29
2018-08-03T13:20:15.735Z,36.33
2018-08-03T13:22:45.124Z,36.51
2018-08-03T13:25:14.109Z,36.26
2018-08-03T13:27:43.068Z,36.36
2018-08-03T13:30:12.590Z,36.09
2018-08-03T13:32:42.141Z,36.15
2018-08-03T13:35:11.194Z,36.23
2018-08-03T13:37:40.187Z,35.63
2018-08-03T13:40:09.154Z,36.15
2018-08-03T13:42:38.141Z,36.17
2018-08-03T13:45:07.236Z,36.08
2018-08-03T13:47:36.350Z,36.13
2018-08-03T13:50:05.547Z,36.05
2018-08-03T13:52:34.550Z,35.88
2018-08-03T13:55:04.351Z,36.28
2018-08-03T13:57:33.384Z,36.42
2018-08-03T14:00:02.321Z,36.04
2018-08-03T14:02:31.282Z,36.20
2018-08-03T14:05:00.285Z,35.70
2018-08-03T14:07:29.271Z,36.11
2018-08-03T14:09:58.314Z,35.78
2018-08-03T14:12:27.318Z,35.90
2018-08-03T14:14:56.459Z,36.00
2018-08-03T14:17:25.407Z,36.16
2018-08-03T14:19:54.387Z,36.19
2018-08-03T14:22:23.370Z,36.32
2018-08-03T14:24:52.430Z,36.21
2018-08-03T14:27:21.431Z,36.17
2018-08-03T14:29:50.781Z,36.31
2018-08-03T14:32:19.794Z,36.36
2018-08-03T14:34:48.759Z,36.37
2018-08-03T14:37:17.738Z,36.37
2018-08-03T14:39:46.794Z,35.57
2018-08-03T14:42:15.734Z,35.14
2018-08-03T14:44:45.319Z,35.53
2018-08-03T14:47:14.335Z,35.34
2018-08-03T14:49:43.767Z,35.54
2018-08-03T14:52:12.745Z,35.74
2018-08-03T14:54:41.819Z,35.86
2018-08-03T14:57:10.838Z,36.09
2018-08-03T14:59:40.575Z,35.96
2018-08-03T15:02:09.554Z,35.94
2018-08-03T15:04:38.578Z,36.03
2018-08-03T15:07:07.622Z,36.17
2018-08-03T15:09:36.634Z,36.01
2018-08-03T15:12:05.694Z,36.14
2018-08-03T15:14:34.635Z,35.98
2018-08-03T15:17:03.606Z,35.92
2018-08-03T15:19:32.621Z,35.97
2018-08-03T15:22:01.618Z,35.90
2018-08-03T15:24:30.603Z,36.09
2018-08-03T15:26:59.594Z,35.91
2018-08-03T15:29:28.554Z,35.76
2018-08-03T15:31:57.510Z,35.82
2018-08-03T15:34:26.465Z,35.85
2018-08-03T15:36:55.900Z,35.80
2018-08-03T15:39:24.938Z,35.74
2018-08-03T15:41:54.056Z,35.88
2018-08-03T15:44:23.009Z,35.81
2018-08-03T15:46:51.941Z,35.81
2018-08-03T15:49:20.890Z,35.70
2018-08-03T15:51:49.839Z,35.51
2018-08-03T15:54:18.806Z,35.61
2018-08-03T15:56:47.735Z,35.58
2018-08-03T15:59:16.721Z,35.63
2018-08-03T16:01:45.686Z,35.81
2018-08-03T16:04:15.383Z,35.84
2018-08-03T16:06:44.416Z,35.82
2018-08-03T16:09:13.349Z,35.64
2018-08-03T16:11:42.293Z,35.65
2018-08-03T16:14:12.025Z,35.46
2018-08-03T16:16:40.963Z,35.21
2018-08-03T16:19:09.947Z,35.37
2018-08-03T16:21:38.964Z,35.27
2018-08-03T16:24:07.887Z,34.89
2018-08-03T16:26:36.834Z,35.00
2018-08-03T16:29:05.791Z,34.87
2018-08-03T16:31:34.738Z,34.76
2018-08-03T16:34:03.815Z,34.94
2018-08-03T16:36:32.762Z,34.85
2018-08-03T16:39:01.831Z,34.69
2018-08-03T16:41:30.793Z,34.65
2018-08-03T16:43:59.761Z,34.59
2018-08-03T16:46:28.665Z,34.71
2018-08-03T16:48:58.074Z,34.64
2018-08-03T16:51:27.270Z,34.55
2018-08-03T16:53:56.534Z,34.65
2018-08-03T16:56:25.563Z,34.52
2018-08-03T16:58:54.519Z,34.69
2018-08-03T17:01:23.534Z,34.63
2018-08-03T17:03:52.676Z,34.67
2018-08-03T17:06:21.641Z,34.72
2018-08-03T17:08:50.572Z,34.53
2018-08-03T17:11:19.575Z,34.44
2018-08-03T17:13:48.660Z,34.48
2018-08-03T17:16:17.694Z,34.59
2018-08-03T17:18:46.641Z,34.41
2018-08-03T17:21:15.810Z,34.39
2018-08-03T17:23:44.767Z,34.15
2018-08-03T17:26:13.733Z,34.19
2018-08-03T17:28:42.655Z,34.23
2018-08-03T17:31:11.698Z,34.24
2018-08-03T17:33:40.729Z,34.16
2018-08-03T17:36:10.303Z,34.04
2018-08-03T17:38:39.289Z,34.10
2018-08-03T17:41:08.871Z,34.09
2018-08-03T17:43:38.435Z,33.96
2018-08-03T17:46:07.602Z,33.93
2018-08-03T17:48:36.622Z,33.90
2018-08-03T17:51:05.676Z,33.94
2018-08-03T17:53:34.702Z,33.89
2018-08-03T17:56:03.641Z,33.84
2018-08-03T17:58:32.761Z,33.81
2018-08-03T18:01:01.751Z,33.65
2018-08-03T18:03:30.711Z,33.37
2018-08-03T18:05:59.865Z,33.53
2018-08-03T18:08:28.874Z,33.51
2018-08-03T18:10:58.162Z,33.47
2018-08-03T18:13:27.115Z,33.47
2018-08-03T18:15:56.204Z,33.33
2018-08-03T18:18:25.095Z,33.21
2018-08-03T18:20:54.059Z,33.22
2018-08-03T18:23:23.075Z,33.08
2018-08-03T18:25:52.010Z,32.91
2018-08-03T18:28:20.952Z,33.14
2018-08-03T18:30:49.943Z,33.12
2018-08-03T18:33:18.875Z,33.09
2018-08-03T18:35:47.847Z,32.99
2018-08-03T18:38:16.858Z,32.90
2018-08-03T18:40:45.843Z,32.78
2018-08-03T18:43:14.805Z,32.65
2018-08-03T18:45:43.848Z,32.76
2018-08-03T18:48:12.816Z,32.64
2018-08-03T18:50:41.758Z,32.58
2018-08-03T18:53:10.695Z,32.51
2018-08-03T18:55:39.674Z,32.41
2018-08-03T18:58:08.622Z,32.44
2018-08-03T19:00:37.588Z,32.42
2018-08-03T19:03:06.656Z,32.35
2018-08-03T19:05:35.601Z,32.28
2018-08-03T19:08:04.612Z,32.18
2018-08-03T19:10:34.199Z,32.04
2018-08-03T19:13:03.566Z,32.05
2018-08-03T19:15:32.565Z,32.05
2018-08-03T19:18:01.852Z,32.02
2018-08-03T19:20:30.819Z,31.93
2018-08-03T19:22:59.841Z,31.88
2018-08-03T19:25:28.908Z,31.86
2018-08-03T19:27:57.806Z,31.86
2018-08-03T19:30:26.757Z,31.81
2018-08-03T19:32:55.786Z,31.76
2018-08-03T19:35:24.701Z,31.63
2018-08-03T19:37:53.631Z,31.62
2018-08-03T19:40:22.597Z,31.53
2018-08-03T19:42:51.610Z,31.38
2018-08-03T19:45:20.597Z,31.38
2018-08-03T19:47:56.206Z,31.39
2018-08-03T19:50:25.191Z,31.33
2018-08-03T19:52:54.170Z,31.20
2018-08-03T19:55:23.078Z,31.20
2018-08-03T19:57:51.986Z,30.98
2018-08-03T20:00:20.923Z,30.74
2018-08-03T20:02:50.009Z,30.70
2018-08-03T20:05:18.954Z,30.55
2018-08-03T20:07:47.875Z,30.55
2018-08-03T20:10:16.791Z,30.40
2018-08-03T20:12:45.763Z,30.22
2018-08-03T20:15:14.715Z,30.16
2018-08-03T20:17:43.643Z,30.15
2018-08-03T20:20:12.663Z,29.96
2018-08-03T20:22:41.598Z,29.86
2018-08-03T20:25:10.561Z,29.84
2018-08-03T20:27:39.543Z,29.80
2018-08-03T20:30:08.879Z,29.65
2018-08-03T20:32:37.798Z,29.65
2018-08-03T20:35:07.290Z,29.56
2018-08-03T20:37:36.246Z,29.56
2018-08-03T20:40:06.383Z,29.41
2018-08-03T20:42:35.332Z,29.30
2018-08-03T20:45:04.679Z,29.24
2018-08-03T20:47:33.617Z,29.04
2018-08-03T20:50:02.557Z,29.07
2018-08-03T20:52:31.510Z,28.90
2018-08-03T20:55:00.502Z,28.79
2018-08-03T20:57:29.470Z,28.83
2018-08-03T20:59:58.443Z,28.72
2018-08-03T21:02:27.346Z,28.66
2018-08-03T21:04:56.255Z,28.44
2018-08-03T21:07:25.218Z,28.42
2018-08-03T21:09:54.162Z,28.33
2018-08-03T21:12:23.110Z,28.33
2018-08-03T21:14:52.039Z,28.25
2018-08-03T21:17:21.543Z,28.10
2018-08-03T21:19:50.523Z,28.30
2018-08-03T21:22:19.514Z,28.22
2018-08-03T21:24:48.423Z,28.05
2018-08-03T21:27:17.361Z,28.08
2018-08-03T21:29:46.332Z,28.05
2018-08-03T21:32:15.317Z,28.01
2018-08-03T21:34:44.225Z,27.85
2018-08-03T21:37:13.322Z,27.80
2018-08-03T21:39:42.224Z,27.70
2018-08-03T21:42:11.378Z,27.62
2018-08-03T21:44:40.317Z,27.59
2018-08-03T21:47:09.293Z,27.45
2018-08-03T21:49:39.015Z,27.52
2018-08-03T21:52:08.195Z,27.46
2018-08-03T21:54:37.186Z,27.46
2018-08-03T21:57:06.249Z,27.37
2018-08-03T21:59:35.218Z,27.27
2018-08-03T22:02:04.194Z,27.23
2018-08-03T22:04:33.115Z,27.16
2018-08-03T22:07:02.042Z,27.07
2018-08-03T22:09:30.991Z,27.11
2018-08-03T22:11:59.963Z,27.07
2018-08-03T22:14:28.911Z,27.01
2018-08-03T22:16:57.837Z,27.02
2018-08-03T22:19:26.845Z,27.03
2018-08-03T22:21:55.786Z,26.94
2018-08-03T22:24:24.839Z,26.85
2018-08-03T22:26:53.795Z,26.92
2018-08-03T22:29:22.853Z,26.90
2018-08-03T22:31:51.822Z,26.86
2018-08-03T22:34:21.292Z,26.80
2018-08-03T22:36:50.381Z,26.66
2018-08-03T22:39:20.281Z,26.66
2018-08-03T22:41:49.601Z,26.56
2018-08-03T22:44:18.877Z,26.22
2018-08-03T22:46:47.835Z,26.36
2018-08-03T22:49:17.651Z,26.47
2018-08-03T22:51:46.593Z,26.56
2018-08-03T22:54:16.146Z,26.44
2018-08-03T22:56:45.714Z,26.56
2018-08-03T22:59:15.320Z,26.59
2018-08-03T23:01:44.470Z,26.58
2018-08-03T23:04:13.666Z,26.58
2018-08-03T23:06:43.691Z,26.37
2018-08-03T23:09:12.918Z,26.09
2018-08-03T23:11:42.391Z,26.03
2018-08-03T23:14:11.561Z,26.03
2018-08-03T23:16:41.010Z,26.17
2018-08-03T23:19:09.938Z,26.18
2018-08-03T23:21:38.863Z,26.03
2018-08-03T23:24:08.526Z,26.00
2018-08-03T23:26:38.308Z,26.12
2018-08-03T23:29:07.522Z,25.98
2018-08-03T23:31:36.617Z,26.11
2018-08-03T23:34:05.711Z,25.97
2018-08-03T23:36:34.815Z,25.76
2018-08-03T23:39:05.034Z,25.70
2018-08-03T23:41:34.210Z,25.70
2018-08-03T23:44:03.178Z,25.68
2018-08-03T23:46:32.858Z,25.76
2018-08-03T23:49:02.137Z,25.78
2018-08-03T23:51:31.214Z,25.74
2018-08-03T23:54:01.115Z,25.70
2018-08-03T23:56:30.251Z,25.69
2018-08-03T23:58:59.533Z,25.65
